Terminal Aerodrome Forecast
Issued by NWS Caribou, ME

Home | Current Version | Previous Version | Text Only | Print | Product List | Glossary On
Versions: 1 2 3 4 5 6 7 8 9 10 11 12 13 14 15 16 17 18 19 20 21
000
FTUS41 KCAR 201259 AAA
TAFBGR
TAF AMD
KBGR 201259Z 2013/2112 24005KT P6SM SCT007
     FM201500 29007KT P6SM BKN070
     FM201900 29010G18KT P6SM FEW050 SCT200
     FM210000 27005KT P6SM SCT200=

USA.gov is the U.S. government's official web portal to all federal, state and local government web resources and services.